Terminal Aerodrome Forecast
Issued by NWS Sterling, VA

Current Version | Previous Version | Graphics & Text | Print | Product List | Glossary On
Versions: 1 2 3 4 5 6 7 8 9 10 11 12 13 14 15 16 17 18 19 20 21 22 23
496
FTUS41 KLWX 172323
TAFMRB
TAF
KMRB 172323Z 1800/1824 VRB03KT 1SM BR OVC003
     FM180900 30005KT 3SM BR OVC015
     FM181200 29006KT P6SM BKN015
     FM181300 29007KT P6SM BKN025
     FM181400 29009KT P6SM BKN040
     FM181700 30013G21KT P6SM BKN050
     FM182300 31009KT P6SM BKN035=

USA.gov is the U.S. government's official web portal to all federal, state and local government web resources and services.